sensor_id;sensor_type;location;lat;lon;timestamp;P1;durP1;ratioP1;P2;durP2;ratioP2
60935;SDS011;46804;51.786;19.520;2022-10-24T00:01:28;49.70;;;27.27;;
60935;SDS011;46804;51.786;19.520;2022-10-24T00:05:29;52.22;;;27.65;;
60935;SDS011;46804;51.786;19.520;2022-10-24T00:09:29;49.58;;;28.20;;
60935;SDS011;46804;51.786;19.520;2022-10-24T00:13:30;56.42;;;28.17;;
60935;SDS011;46804;51.786;19.520;2022-10-24T00:17:31;47.88;;;26.70;;
60935;SDS011;46804;51.786;19.520;2022-10-24T00:21:32;47.67;;;26.70;;
60935;SDS011;46804;51.786;19.520;2022-10-24T00:25:32;54.15;;;27.40;;
60935;SDS011;46804;51.786;19.520;2022-10-24T00:29:33;57.00;;;29.77;;
60935;SDS011;46804;51.786;19.520;2022-10-24T00:33:34;58.03;;;28.77;;
60935;SDS011;46804;51.786;19.520;2022-10-24T00:37:34;55.63;;;26.83;;
60935;SDS011;46804;51.786;19.520;2022-10-24T00:41:36;52.90;;;30.85;;
60935;SDS011;46804;51.786;19.520;2022-10-24T00:45:59;59.33;;;30.70;;
60935;SDS011;46804;51.786;19.520;2022-10-24T00:50:03;59.92;;;29.48;;
60935;SDS011;46804;51.786;19.520;2022-10-24T00:54:11;56.20;;;29.63;;
60935;SDS011;46804;51.786;19.520;2022-10-24T00:58:12;55.22;;;28.52;;
60935;SDS011;46804;51.786;19.520;2022-10-24T01:02:14;56.60;;;30.83;;
60935;SDS011;46804;51.786;19.520;2022-10-24T01:06:19;60.90;;;29.85;;
60935;SDS011;46804;51.786;19.520;2022-10-24T01:19:28;58.15;;;30.98;;
60935;SDS011;46804;51.786;19.520;2022-10-24T01:36:12;57.85;;;29.88;;
60935;SDS011;46804;51.786;19.520;2022-10-24T01:40:20;56.47;;;28.23;;
60935;SDS011;46804;51.786;19.520;2022-10-24T01:44:29;51.15;;;29.35;;
60935;SDS011;46804;51.786;19.520;2022-10-24T01:48:37;50.22;;;28.85;;
60935;SDS011;46804;51.786;19.520;2022-10-24T01:52:41;56.00;;;29.77;;
60935;SDS011;46804;51.786;19.520;2022-10-24T01:56:43;63.47;;;28.00;;
60935;SDS011;46804;51.786;19.520;2022-10-24T02:00:44;56.88;;;29.58;;
60935;SDS011;46804;51.786;19.520;2022-10-24T02:04:49;53.55;;;29.80;;
60935;SDS011;46804;51.786;19.520;2022-10-24T02:08:55;53.53;;;26.25;;
60935;SDS011;46804;51.786;19.520;2022-10-24T02:13:04;54.72;;;28.70;;
60935;SDS011;46804;51.786;19.520;2022-10-24T02:17:10;53.60;;;29.55;;
60935;SDS011;46804;51.786;19.520;2022-10-24T02:21:16;51.95;;;29.25;;
60935;SDS011;46804;51.786;19.520;2022-10-24T02:25:18;47.80;;;27.35;;
60935;SDS011;46804;51.786;19.520;2022-10-24T02:29:25;61.70;;;30.33;;
60935;SDS011;46804;51.786;19.520;2022-10-24T02:33:28;58.42;;;29.98;;
60935;SDS011;46804;51.786;19.520;2022-10-24T02:37:30;55.58;;;30.45;;
60935;SDS011;46804;51.786;19.520;2022-10-24T02:41:35;56.30;;;29.40;;
60935;SDS011;46804;51.786;19.520;2022-10-24T02:45:38;57.65;;;29.88;;
60935;SDS011;46804;51.786;19.520;2022-10-24T02:49:39;61.17;;;29.73;;
60935;SDS011;46804;51.786;19.520;2022-10-24T02:53:41;48.10;;;27.95;;
60935;SDS011;46804;51.786;19.520;2022-10-24T02:57:41;54.72;;;30.27;;
60935;SDS011;46804;51.786;19.520;2022-10-24T03:01:42;57.92;;;29.17;;
60935;SDS011;46804;51.786;19.520;2022-10-24T03:05:42;47.97;;;26.63;;
60935;SDS011;46804;51.786;19.520;2022-10-24T03:09:43;56.58;;;30.25;;
60935;SDS011;46804;51.786;19.520;2022-10-24T03:13:43;49.58;;;25.08;;
60935;SDS011;46804;51.786;19.520;2022-10-24T03:17:44;48.47;;;27.02;;
60935;SDS011;46804;51.786;19.520;2022-10-24T03:21:48;48.85;;;25.90;;
60935;SDS011;46804;51.786;19.520;2022-10-24T03:25:49;45.63;;;25.63;;
60935;SDS011;46804;51.786;19.520;2022-10-24T03:29:49;43.72;;;24.20;;
60935;SDS011;46804;51.786;19.520;2022-10-24T03:33:50;39.65;;;23.90;;
60935;SDS011;46804;51.786;19.520;2022-10-24T03:37:51;48.45;;;26.33;;
60935;SDS011;46804;51.786;19.520;2022-10-24T03:41:51;48.85;;;26.73;;
60935;SDS011;46804;51.786;19.520;2022-10-24T03:45:52;44.58;;;26.30;;
60935;SDS011;46804;51.786;19.520;2022-10-24T03:49:52;51.03;;;25.80;;
60935;SDS011;46804;51.786;19.520;2022-10-24T03:53:53;48.85;;;26.70;;
60935;SDS011;46804;51.786;19.520;2022-10-24T03:57:53;48.42;;;26.48;;
60935;SDS011;46804;51.786;19.520;2022-10-24T04:01:54;46.00;;;25.35;;
60935;SDS011;46804;51.786;19.520;2022-10-24T04:05:55;42.10;;;25.15;;
60935;SDS011;46804;51.786;19.520;2022-10-24T04:09:55;46.58;;;25.45;;
60935;SDS011;46804;51.786;19.520;2022-10-24T04:13:56;40.60;;;23.58;;
60935;SDS011;46804;51.786;19.520;2022-10-24T04:17:57;43.35;;;24.13;;
60935;SDS011;46804;51.786;19.520;2022-10-24T04:21:58;47.70;;;27.38;;
60935;SDS011;46804;51.786;19.520;2022-10-24T04:25:58;42.50;;;24.52;;
60935;SDS011;46804;51.786;19.520;2022-10-24T04:29:59;49.80;;;23.52;;
60935;SDS011;46804;51.786;19.520;2022-10-24T04:34:00;44.13;;;24.25;;
60935;SDS011;46804;51.786;19.520;2022-10-24T04:38:00;44.15;;;24.55;;
60935;SDS011;46804;51.786;19.520;2022-10-24T04:42:01;44.05;;;23.83;;
60935;SDS011;46804;51.786;19.520;2022-10-24T04:46:02;41.60;;;23.88;;
60935;SDS011;46804;51.786;19.520;2022-10-24T04:50:03;51.45;;;23.67;;
60935;SDS011;46804;51.786;19.520;2022-10-24T04:54:04;44.60;;;23.63;;
60935;SDS011;46804;51.786;19.520;2022-10-24T04:58:05;38.63;;;22.20;;
60935;SDS011;46804;51.786;19.520;2022-10-24T05:02:06;36.33;;;22.10;;
60935;SDS011;46804;51.786;19.520;2022-10-24T05:06:06;44.75;;;23.00;;
60935;SDS011;46804;51.786;19.520;2022-10-24T05:10:07;39.47;;;22.40;;
60935;SDS011;46804;51.786;19.520;2022-10-24T05:14:08;41.60;;;23.13;;
60935;SDS011;46804;51.786;19.520;2022-10-24T05:18:09;40.35;;;23.30;;
60935;SDS011;46804;51.786;19.520;2022-10-24T05:22:09;43.97;;;23.90;;
60935;SDS011;46804;51.786;19.520;2022-10-24T05:26:10;40.55;;;23.10;;
60935;SDS011;46804;51.786;19.520;2022-10-24T05:30:10;33.53;;;21.45;;
60935;SDS011;46804;51.786;19.520;2022-10-24T05:34:12;38.53;;;22.58;;
60935;SDS011;46804;51.786;19.520;2022-10-24T05:38:12;40.85;;;23.30;;
60935;SDS011;46804;51.786;19.520;2022-10-24T05:42:13;45.33;;;23.10;;
60935;SDS011;46804;51.786;19.520;2022-10-24T05:46:13;39.67;;;23.02;;
60935;SDS011;46804;51.786;19.520;2022-10-24T05:50:14;46.00;;;24.08;;
60935;SDS011;46804;51.786;19.520;2022-10-24T05:54:15;39.85;;;23.25;;
60935;SDS011;46804;51.786;19.520;2022-10-24T05:58:16;41.92;;;21.60;;
60935;SDS011;46804;51.786;19.520;2022-10-24T06:02:20;43.75;;;21.88;;
60935;SDS011;46804;51.786;19.520;2022-10-24T06:06:21;42.53;;;21.75;;
60935;SDS011;46804;51.786;19.520;2022-10-24T06:10:23;36.40;;;20.85;;
60935;SDS011;46804;51.786;19.520;2022-10-24T06:14:24;39.67;;;21.88;;
60935;SDS011;46804;51.786;19.520;2022-10-24T06:18:24;34.92;;;20.45;;
60935;SDS011;46804;51.786;19.520;2022-10-24T06:22:25;33.10;;;19.23;;
60935;SDS011;46804;51.786;19.520;2022-10-24T06:26:28;33.47;;;19.73;;
60935;SDS011;46804;51.786;19.520;2022-10-24T06:30:29;32.55;;;18.85;;
60935;SDS011;46804;51.786;19.520;2022-10-24T06:34:29;31.95;;;18.15;;
60935;SDS011;46804;51.786;19.520;2022-10-24T06:38:30;35.67;;;19.42;;
60935;SDS011;46804;51.786;19.520;2022-10-24T06:42:32;32.50;;;17.60;;
60935;SDS011;46804;51.786;19.520;2022-10-24T06:46:32;33.38;;;18.98;;
60935;SDS011;46804;51.786;19.520;2022-10-24T06:50:33;39.25;;;22.40;;
60935;SDS011;46804;51.786;19.520;2022-10-24T06:54:34;55.25;;;39.28;;
60935;SDS011;46804;51.786;19.520;2022-10-24T06:58:36;32.58;;;19.13;;
60935;SDS011;46804;51.786;19.520;2022-10-24T07:02:37;29.83;;;18.60;;
60935;SDS011;46804;51.786;19.520;2022-10-24T07:06:37;34.35;;;24.35;;
60935;SDS011;46804;51.786;19.520;2022-10-24T07:10:38;95.03;;;49.08;;
60935;SDS011;46804;51.786;19.520;2022-10-24T07:14:39;52.67;;;32.60;;
60935;SDS011;46804;51.786;19.520;2022-10-24T07:18:39;55.00;;;32.17;;
60935;SDS011;46804;51.786;19.520;2022-10-24T07:22:40;135.07;;;55.13;;
60935;SDS011;46804;51.786;19.520;2022-10-24T07:26:41;33.45;;;20.00;;
60935;SDS011;46804;51.786;19.520;2022-10-24T07:30:42;75.88;;;38.80;;
60935;SDS011;46804;51.786;19.520;2022-10-24T07:34:43;50.83;;;27.88;;
60935;SDS011;46804;51.786;19.520;2022-10-24T07:38:44;32.22;;;18.65;;
60935;SDS011;46804;51.786;19.520;2022-10-24T07:42:46;33.42;;;23.40;;
60935;SDS011;46804;51.786;19.520;2022-10-24T07:46:47;55.47;;;30.90;;
60935;SDS011;46804;51.786;19.520;2022-10-24T07:50:48;28.45;;;21.85;;
60935;SDS011;46804;51.786;19.520;2022-10-24T07:54:51;24.88;;;15.88;;
60935;SDS011;46804;51.786;19.520;2022-10-24T07:58:52;56.47;;;28.23;;
60935;SDS011;46804;51.786;19.520;2022-10-24T08:02:54;22.58;;;15.77;;
60935;SDS011;46804;51.786;19.520;2022-10-24T08:06:55;29.00;;;17.35;;
60935;SDS011;46804;51.786;19.520;2022-10-24T08:10:56;28.48;;;17.15;;
60935;SDS011;46804;51.786;19.520;2022-10-24T08:14:56;70.03;;;32.47;;
60935;SDS011;46804;51.786;19.520;2022-10-24T08:18:57;25.45;;;15.75;;
60935;SDS011;46804;51.786;19.520;2022-10-24T08:22:58;20.17;;;12.68;;
60935;SDS011;46804;51.786;19.520;2022-10-24T08:26:58;27.30;;;14.25;;
60935;SDS011;46804;51.786;19.520;2022-10-24T08:31:00;21.30;;;12.70;;
60935;SDS011;46804;51.786;19.520;2022-10-24T08:35:06;18.33;;;12.20;;
60935;SDS011;46804;51.786;19.520;2022-10-24T08:39:07;26.63;;;14.60;;
60935;SDS011;46804;51.786;19.520;2022-10-24T08:43:08;20.13;;;11.60;;
60935;SDS011;46804;51.786;19.520;2022-10-24T08:51:33;16.02;;;10.75;;
60935;SDS011;46804;51.786;19.520;2022-10-24T09:00:18;23.02;;;10.90;;
60935;SDS011;46804;51.786;19.520;2022-10-24T09:04:25;22.58;;;10.95;;
60935;SDS011;46804;51.786;19.520;2022-10-24T09:08:35;25.77;;;11.52;;
60935;SDS011;46804;51.786;19.520;2022-10-24T09:12:42;21.83;;;11.32;;
60935;SDS011;46804;51.786;19.520;2022-10-24T09:16:44;21.05;;;10.68;;
60935;SDS011;46804;51.786;19.520;2022-10-24T09:20:47;21.88;;;11.43;;
60935;SDS011;46804;51.786;19.520;2022-10-24T09:24:54;18.15;;;10.40;;
60935;SDS011;46804;51.786;19.520;2022-10-24T09:28:58;20.13;;;10.15;;
60935;SDS011;46804;51.786;19.520;2022-10-24T09:33:00;24.77;;;11.40;;
60935;SDS011;46804;51.786;19.520;2022-10-24T09:41:37;23.63;;;10.60;;
60935;SDS011;46804;51.786;19.520;2022-10-24T09:45:42;17.88;;;9.23;;
60935;SDS011;46804;51.786;19.520;2022-10-24T09:49:45;14.77;;;9.30;;
60935;SDS011;46804;51.786;19.520;2022-10-24T09:53:57;18.10;;;9.63;;
60935;SDS011;46804;51.786;19.520;2022-10-24T10:02:21;12.15;;;7.68;;
60935;SDS011;46804;51.786;19.520;2022-10-24T10:06:23;11.95;;;7.47;;
60935;SDS011;46804;51.786;19.520;2022-10-24T10:10:28;17.80;;;8.40;;
60935;SDS011;46804;51.786;19.520;2022-10-24T10:14:31;10.88;;;7.22;;
60935;SDS011;46804;51.786;19.520;2022-10-24T10:18:42;12.95;;;7.15;;
60935;SDS011;46804;51.786;19.520;2022-10-24T10:22:45;13.57;;;7.00;;
60935;SDS011;46804;51.786;19.520;2022-10-24T10:26:46;12.93;;;6.63;;
60935;SDS011;46804;51.786;19.520;2022-10-24T10:30:47;10.38;;;6.80;;
60935;SDS011;46804;51.786;19.520;2022-10-24T10:34:57;14.88;;;6.90;;
60935;SDS011;46804;51.786;19.520;2022-10-24T10:39:11;10.80;;;6.43;;
60935;SDS011;46804;51.786;19.520;2022-10-24T10:43:33;12.00;;;6.30;;
60935;SDS011;46804;51.786;19.520;2022-10-24T10:47:47;11.07;;;6.15;;
60935;SDS011;46804;51.786;19.520;2022-10-24T10:52:10;10.20;;;5.55;;
60935;SDS011;46804;51.786;19.520;2022-10-24T11:00:36;8.88;;;4.78;;
60935;SDS011;46804;51.786;19.520;2022-10-24T11:05:03;8.10;;;4.72;;
60935;SDS011;46804;51.786;19.520;2022-10-24T11:09:23;8.05;;;4.53;;
60935;SDS011;46804;51.786;19.520;2022-10-24T11:13:57;14.05;;;4.60;;
60935;SDS011;46804;51.786;19.520;2022-10-24T11:18:19;7.40;;;4.60;;
60935;SDS011;46804;51.786;19.520;2022-10-24T11:22:31;9.95;;;4.68;;
60935;SDS011;46804;51.786;19.520;2022-10-24T11:27:24;7.72;;;4.45;;
60935;SDS011;46804;51.786;19.520;2022-10-24T11:31:16;8.57;;;3.88;;
60935;SDS011;46804;51.786;19.520;2022-10-24T11:35:27;9.15;;;3.80;;
60935;SDS011;46804;51.786;19.520;2022-10-24T11:39:39;8.82;;;3.75;;
60935;SDS011;46804;51.786;19.520;2022-10-24T11:43:45;7.93;;;3.75;;
60935;SDS011;46804;51.786;19.520;2022-10-24T11:51:54;7.75;;;4.05;;
60935;SDS011;46804;51.786;19.520;2022-10-24T11:56:04;6.68;;;3.65;;
60935;SDS011;46804;51.786;19.520;2022-10-24T12:00:37;6.28;;;3.50;;
60935;SDS011;46804;51.786;19.520;2022-10-24T12:14:11;8.65;;;3.60;;
60935;SDS011;46804;51.786;19.520;2022-10-24T12:18:42;10.02;;;3.45;;
60935;SDS011;46804;51.786;19.520;2022-10-24T12:22:46;7.00;;;3.22;;
60935;SDS011;46804;51.786;19.520;2022-10-24T12:26:56;10.50;;;3.58;;
60935;SDS011;46804;51.786;19.520;2022-10-24T12:31:09;9.02;;;3.17;;
60935;SDS011;46804;51.786;19.520;2022-10-24T12:35:43;9.25;;;4.20;;
60935;SDS011;46804;51.786;19.520;2022-10-24T12:39:36;15.82;;;3.40;;
60935;SDS011;46804;51.786;19.520;2022-10-24T12:43:47;6.70;;;3.50;;
60935;SDS011;46804;51.786;19.520;2022-10-24T12:59:56;8.07;;;3.60;;
60935;SDS011;46804;51.786;19.520;2022-10-24T13:04:09;8.97;;;3.40;;
60935;SDS011;46804;51.786;19.520;2022-10-24T13:17:28;8.65;;;3.42;;
60935;SDS011;46804;51.786;19.520;2022-10-24T13:25:45;7.97;;;3.58;;
60935;SDS011;46804;51.786;19.520;2022-10-24T13:33:49;9.05;;;3.50;;
60935;SDS011;46804;51.786;19.520;2022-10-24T13:42:00;15.27;;;6.72;;
60935;SDS011;46804;51.786;19.520;2022-10-24T13:46:05;26.02;;;14.30;;
60935;SDS011;46804;51.786;19.520;2022-10-24T13:50:12;13.80;;;5.90;;
60935;SDS011;46804;51.786;19.520;2022-10-24T13:54:19;10.63;;;5.00;;
60935;SDS011;46804;51.786;19.520;2022-10-24T13:58:24;13.05;;;4.63;;
60935;SDS011;46804;51.786;19.520;2022-10-24T14:02:27;13.60;;;4.93;;
60935;SDS011;46804;51.786;19.520;2022-10-24T14:06:32;8.77;;;3.75;;
60935;SDS011;46804;51.786;19.520;2022-10-24T14:10:33;10.57;;;4.07;;
60935;SDS011;46804;51.786;19.520;2022-10-24T14:14:38;7.68;;;3.72;;
60935;SDS011;46804;51.786;19.520;2022-10-24T14:18:42;9.85;;;4.93;;
60935;SDS011;46804;51.786;19.520;2022-10-24T14:22:43;7.07;;;3.85;;
60935;SDS011;46804;51.786;19.520;2022-10-24T14:26:44;19.13;;;6.50;;
60935;SDS011;46804;51.786;19.520;2022-10-24T14:30:58;12.05;;;7.40;;
60935;SDS011;46804;51.786;19.520;2022-10-24T14:35:00;9.07;;;3.90;;
60935;SDS011;46804;51.786;19.520;2022-10-24T14:39:01;9.85;;;4.30;;
60935;SDS011;46804;51.786;19.520;2022-10-24T14:43:03;7.60;;;4.78;;
60935;SDS011;46804;51.786;19.520;2022-10-24T14:51:31;14.32;;;7.47;;
60935;SDS011;46804;51.786;19.520;2022-10-24T14:55:36;18.88;;;7.18;;
60935;SDS011;46804;51.786;19.520;2022-10-24T14:59:37;18.80;;;9.10;;
60935;SDS011;46804;51.786;19.520;2022-10-24T15:03:48;10.57;;;5.15;;
60935;SDS011;46804;51.786;19.520;2022-10-24T15:12:25;17.23;;;11.32;;
60935;SDS011;46804;51.786;19.520;2022-10-24T15:16:37;12.25;;;7.88;;
60935;SDS011;46804;51.786;19.520;2022-10-24T15:20:40;20.23;;;10.38;;
60935;SDS011;46804;51.786;19.520;2022-10-24T15:24:40;25.90;;;13.77;;
60935;SDS011;46804;51.786;19.520;2022-10-24T15:28:45;21.05;;;12.60;;
60935;SDS011;46804;51.786;19.520;2022-10-24T15:32:54;25.92;;;11.85;;
60935;SDS011;46804;51.786;19.520;2022-10-24T15:36:56;31.20;;;17.38;;
60935;SDS011;46804;51.786;19.520;2022-10-24T15:40:57;17.58;;;11.48;;
60935;SDS011;46804;51.786;19.520;2022-10-24T15:44:57;15.68;;;5.88;;
60935;SDS011;46804;51.786;19.520;2022-10-24T15:48:58;14.68;;;6.20;;
60935;SDS011;46804;51.786;19.520;2022-10-24T15:52:59;19.98;;;7.85;;
60935;SDS011;46804;51.786;19.520;2022-10-24T15:57:01;16.80;;;8.10;;
60935;SDS011;46804;51.786;19.520;2022-10-24T16:01:02;18.77;;;10.07;;
60935;SDS011;46804;51.786;19.520;2022-10-24T16:05:03;21.50;;;11.68;;
60935;SDS011;46804;51.786;19.520;2022-10-24T16:09:05;24.65;;;12.30;;
60935;SDS011;46804;51.786;19.520;2022-10-24T16:13:12;28.48;;;17.48;;
60935;SDS011;46804;51.786;19.520;2022-10-24T16:17:14;32.88;;;22.20;;
60935;SDS011;46804;51.786;19.520;2022-10-24T16:21:15;28.50;;;20.13;;
60935;SDS011;46804;51.786;19.520;2022-10-24T16:25:23;50.97;;;33.45;;
60935;SDS011;46804;51.786;19.520;2022-10-24T16:29:26;40.03;;;24.77;;
60935;SDS011;46804;51.786;19.520;2022-10-24T16:33:26;126.95;;;48.33;;
60935;SDS011;46804;51.786;19.520;2022-10-24T16:37:27;68.68;;;29.73;;
60935;SDS011;46804;51.786;19.520;2022-10-24T16:41:27;60.38;;;27.20;;
60935;SDS011;46804;51.786;19.520;2022-10-24T16:45:28;47.78;;;20.98;;
60935;SDS011;46804;51.786;19.520;2022-10-24T16:49:28;42.90;;;22.20;;
60935;SDS011;46804;51.786;19.520;2022-10-24T16:53:30;33.33;;;15.82;;
60935;SDS011;46804;51.786;19.520;2022-10-24T16:57:31;31.20;;;13.25;;
60935;SDS011;46804;51.786;19.520;2022-10-24T17:01:31;20.85;;;11.98;;
60935;SDS011;46804;51.786;19.520;2022-10-24T17:05:32;37.33;;;17.85;;
60935;SDS011;46804;51.786;19.520;2022-10-24T17:09:32;27.35;;;11.88;;
60935;SDS011;46804;51.786;19.520;2022-10-24T17:13:33;25.35;;;12.63;;
60935;SDS011;46804;51.786;19.520;2022-10-24T17:17:33;33.05;;;14.93;;
60935;SDS011;46804;51.786;19.520;2022-10-24T17:21:34;29.20;;;14.63;;
60935;SDS011;46804;51.786;19.520;2022-10-24T17:25:35;21.70;;;13.15;;
60935;SDS011;46804;51.786;19.520;2022-10-24T17:29:36;27.13;;;14.05;;
60935;SDS011;46804;51.786;19.520;2022-10-24T17:33:37;24.67;;;14.32;;
60935;SDS011;46804;51.786;19.520;2022-10-24T17:37:41;35.28;;;17.95;;
60935;SDS011;46804;51.786;19.520;2022-10-24T17:41:43;45.92;;;24.55;;
60935;SDS011;46804;51.786;19.520;2022-10-24T17:45:44;42.25;;;22.70;;
60935;SDS011;46804;51.786;19.520;2022-10-24T17:49:44;62.42;;;28.33;;
60935;SDS011;46804;51.786;19.520;2022-10-24T17:53:45;34.75;;;16.70;;
60935;SDS011;46804;51.786;19.520;2022-10-24T17:57:45;23.83;;;13.18;;
60935;SDS011;46804;51.786;19.520;2022-10-24T18:01:47;37.08;;;15.98;;
60935;SDS011;46804;51.786;19.520;2022-10-24T18:05:47;33.20;;;16.80;;
60935;SDS011;46804;51.786;19.520;2022-10-24T18:09:48;21.27;;;13.63;;
60935;SDS011;46804;51.786;19.520;2022-10-24T18:13:48;34.72;;;15.82;;
60935;SDS011;46804;51.786;19.520;2022-10-24T18:17:49;32.08;;;17.52;;
60935;SDS011;46804;51.786;19.520;2022-10-24T18:21:49;27.95;;;15.68;;
60935;SDS011;46804;51.786;19.520;2022-10-24T18:25:50;35.70;;;18.55;;
60935;SDS011;46804;51.786;19.520;2022-10-24T18:29:50;34.50;;;17.58;;
60935;SDS011;46804;51.786;19.520;2022-10-24T18:33:51;36.53;;;18.95;;
60935;SDS011;46804;51.786;19.520;2022-10-24T18:37:52;32.50;;;16.75;;
60935;SDS011;46804;51.786;19.520;2022-10-24T18:42:02;29.02;;;16.45;;
60935;SDS011;46804;51.786;19.520;2022-10-24T18:46:06;26.25;;;14.70;;
60935;SDS011;46804;51.786;19.520;2022-10-24T18:50:14;44.35;;;21.30;;
60935;SDS011;46804;51.786;19.520;2022-10-24T18:54:16;32.40;;;18.48;;
60935;SDS011;46804;51.786;19.520;2022-10-24T18:58:18;41.92;;;20.10;;
60935;SDS011;46804;51.786;19.520;2022-10-24T19:02:27;29.30;;;16.10;;
60935;SDS011;46804;51.786;19.520;2022-10-24T19:06:32;26.65;;;15.63;;
60935;SDS011;46804;51.786;19.520;2022-10-24T19:10:34;29.38;;;16.98;;
60935;SDS011;46804;51.786;19.520;2022-10-24T19:14:35;28.40;;;14.80;;
60935;SDS011;46804;51.786;19.520;2022-10-24T19:18:36;23.55;;;12.18;;
60935;SDS011;46804;51.786;19.520;2022-10-24T19:22:37;23.58;;;12.18;;
60935;SDS011;46804;51.786;19.520;2022-10-24T19:26:37;18.20;;;10.98;;
60935;SDS011;46804;51.786;19.520;2022-10-24T19:30:39;24.05;;;13.25;;
60935;SDS011;46804;51.786;19.520;2022-10-24T19:34:41;18.00;;;10.55;;
60935;SDS011;46804;51.786;19.520;2022-10-24T19:38:41;19.25;;;9.95;;
60935;SDS011;46804;51.786;19.520;2022-10-24T19:42:42;18.63;;;9.90;;
60935;SDS011;46804;51.786;19.520;2022-10-24T19:46:42;18.40;;;10.40;;
60935;SDS011;46804;51.786;19.520;2022-10-24T19:50:43;22.27;;;11.65;;
60935;SDS011;46804;51.786;19.520;2022-10-24T19:54:43;21.52;;;10.80;;
60935;SDS011;46804;51.786;19.520;2022-10-24T19:58:44;17.20;;;10.05;;
60935;SDS011;46804;51.786;19.520;2022-10-24T20:02:44;18.08;;;10.20;;
60935;SDS011;46804;51.786;19.520;2022-10-24T20:06:45;20.42;;;9.80;;
60935;SDS011;46804;51.786;19.520;2022-10-24T20:10:50;20.63;;;10.75;;
60935;SDS011;46804;51.786;19.520;2022-10-24T20:14:51;23.88;;;12.23;;
60935;SDS011;46804;51.786;19.520;2022-10-24T20:18:52;16.20;;;10.38;;
60935;SDS011;46804;51.786;19.520;2022-10-24T20:22:53;17.38;;;10.00;;
60935;SDS011;46804;51.786;19.520;2022-10-24T20:26:53;19.48;;;9.90;;
60935;SDS011;46804;51.786;19.520;2022-10-24T20:30:54;15.48;;;8.73;;
60935;SDS011;46804;51.786;19.520;2022-10-24T20:34:55;22.65;;;10.88;;
60935;SDS011;46804;51.786;19.520;2022-10-24T20:38:55;16.75;;;10.02;;
60935;SDS011;46804;51.786;19.520;2022-10-24T20:43:00;18.33;;;9.20;;
60935;SDS011;46804;51.786;19.520;2022-10-24T20:47:06;16.40;;;9.57;;
60935;SDS011;46804;51.786;19.520;2022-10-24T20:51:07;24.30;;;12.27;;
60935;SDS011;46804;51.786;19.520;2022-10-24T20:55:09;19.20;;;11.63;;
60935;SDS011;46804;51.786;19.520;2022-10-24T20:59:11;18.70;;;11.50;;
60935;SDS011;46804;51.786;19.520;2022-10-24T21:03:12;24.25;;;12.20;;
60935;SDS011;46804;51.786;19.520;2022-10-24T21:07:14;22.98;;;11.55;;
60935;SDS011;46804;51.786;19.520;2022-10-24T21:11:15;19.75;;;12.77;;
60935;SDS011;46804;51.786;19.520;2022-10-24T21:15:17;23.65;;;12.60;;
60935;SDS011;46804;51.786;19.520;2022-10-24T21:19:18;22.98;;;14.02;;
60935;SDS011;46804;51.786;19.520;2022-10-24T21:23:18;25.25;;;12.15;;
60935;SDS011;46804;51.786;19.520;2022-10-24T21:27:19;23.95;;;14.52;;
60935;SDS011;46804;51.786;19.520;2022-10-24T21:31:20;21.75;;;12.18;;
60935;SDS011;46804;51.786;19.520;2022-10-24T21:35:21;21.27;;;11.65;;
60935;SDS011;46804;51.786;19.520;2022-10-24T21:39:22;19.08;;;11.77;;
60935;SDS011;46804;51.786;19.520;2022-10-24T21:43:22;20.27;;;12.50;;
60935;SDS011;46804;51.786;19.520;2022-10-24T21:47:23;22.40;;;13.70;;
60935;SDS011;46804;51.786;19.520;2022-10-24T21:55:34;20.42;;;12.57;;
60935;SDS011;46804;51.786;19.520;2022-10-24T21:59:35;28.30;;;13.48;;
60935;SDS011;46804;51.786;19.520;2022-10-24T22:03:35;28.10;;;14.68;;
60935;SDS011;46804;51.786;19.520;2022-10-24T22:07:36;22.23;;;12.70;;
60935;SDS011;46804;51.786;19.520;2022-10-24T22:11:36;17.77;;;11.18;;
60935;SDS011;46804;51.786;19.520;2022-10-24T22:15:37;18.00;;;9.63;;
60935;SDS011;46804;51.786;19.520;2022-10-24T22:19:38;14.68;;;9.05;;
60935;SDS011;46804;51.786;19.520;2022-10-24T22:23:38;19.30;;;8.40;;
60935;SDS011;46804;51.786;19.520;2022-10-24T22:27:39;20.55;;;9.00;;
60935;SDS011;46804;51.786;19.520;2022-10-24T22:31:39;17.98;;;8.27;;
60935;SDS011;46804;51.786;19.520;2022-10-24T22:35:40;14.02;;;8.02;;
60935;SDS011;46804;51.786;19.520;2022-10-24T22:39:41;13.90;;;7.65;;
60935;SDS011;46804;51.786;19.520;2022-10-24T22:43:42;12.95;;;7.05;;
60935;SDS011;46804;51.786;19.520;2022-10-24T22:47:57;13.32;;;6.43;;
60935;SDS011;46804;51.786;19.520;2022-10-24T22:52:02;15.38;;;6.15;;
60935;SDS011;46804;51.786;19.520;2022-10-24T23:00:34;12.20;;;5.65;;
60935;SDS011;46804;51.786;19.520;2022-10-24T23:04:40;13.60;;;5.65;;
60935;SDS011;46804;51.786;19.520;2022-10-24T23:08:50;18.05;;;5.75;;
60935;SDS011;46804;51.786;19.520;2022-10-24T23:12:50;9.57;;;5.88;;
60935;SDS011;46804;51.786;19.520;2022-10-24T23:16:54;16.67;;;7.90;;
60935;SDS011;46804;51.786;19.520;2022-10-24T23:21:20;13.77;;;8.02;;
60935;SDS011;46804;51.786;19.520;2022-10-24T23:25:23;20.45;;;9.65;;
60935;SDS011;46804;51.786;19.520;2022-10-24T23:29:27;20.38;;;11.48;;
60935;SDS011;46804;51.786;19.520;2022-10-24T23:33:30;17.75;;;10.80;;
60935;SDS011;46804;51.786;19.520;2022-10-24T23:37:34;21.90;;;10.82;;
60935;SDS011;46804;51.786;19.520;2022-10-24T23:41:37;21.80;;;11.27;;
60935;SDS011;46804;51.786;19.520;2022-10-24T23:45:42;24.38;;;10.30;;
60935;SDS011;46804;51.786;19.520;2022-10-24T23:50:11;15.23;;;9.70;;
60935;SDS011;46804;51.786;19.520;2022-10-24T23:54:23;19.17;;;10.80;;
60935;SDS011;46804;51.786;19.520;2022-10-24T23:58:28;20.85;;;10.60;;
